Sagar Sampada — VWXS — position and weather

sailwx.info

Track history (hours):
 
Tides and Currents Weather Stations Pressure Air Temp Water Temp Dewpoint Dewpoint Depression Visibility Wind Speed Wind Dir Waves Ship Positions

Oceanographic research ship Sagar Sampada (India)

Detailed information on ship capabilities available from University of Delaware's Ocean Information Center.

Last reported at 2017-Aug-15 06:09 UTC. Time now 2017-Aug-19 15:00 UTC.
Position N 12°24' E 075°00'.

Type: Ship (hazmat cat A). MMSI: 419323000.

Wind from 260 at 10 knots

Barometer 1010.2 mb
Air temperature 28.1 ° C

Date/timePositionNaut miles runAvg speedWind from/ knotsBaromVisibWave heightAir tempDewpointWater temp
2017-Aug-15 06:09N 12°24' E 075°00'25 8.2 260 / 101010.2 28.1
2017-Aug-15 03:09N 12°00' E 075°06'0 0.0 340 / 41011.0 27.0
2017-Aug-15 00:09N 12°00' E 075°06'6 2.0 260 / 81009.4 26.4
2017-Aug-14 21:09N 11°54' E 075°06'6 2.0 360 / 81009.5 26.5
2017-Aug-14 18:09N 12°00' E 075°06'6 1.0 330 / 21011.3 27.2
2017-Aug-14 12:09N 12°00' E 075°00'42 1.6 310 / 121008.4 28.0
2017-Aug-13 09:09N 11°30' E 075°30'8 2.8 240 / 101008.9 27.0
2017-Aug-13 06:09N 11°24' E 075°36'18 5.9 340 / 41011.1 27.9
2017-Aug-13 03:09N 11°24' E 075°18'6 2.0 100 / 61011.4 25.3
2017-Aug-13 00:09N 11°18' E 075°18'0 0.0 300 / 21008.8 25.6
2017-Aug-12 21:09N 11°18' E 075°18'0 0.0 300 / 81008.7 25.7
2017-Aug-12 18:09N 11°18' E 075°18'36 4.0 300 / 81010.7 25.7
2017-Aug-12 09:09N 11°24' E 074°42'13 4.5 040 / 61008.9 28.3
2017-Aug-12 06:09N 11°12' E 074°48'13 4.5 060 / 21011.0 27.4
2017-Aug-12 03:09N 11°00' E 074°54'22 7.2 020 / 21011.1 26.2
2017-Aug-12 00:09N 10°42' E 075°06'19 6.3 030 / 81009.9 25.5
2017-Aug-11 21:09N 10°24' E 075°12'76 2.8 040 / 61010.1 26.4
2017-Aug-10 18:09N 09°36' E 076°12'19 6.3 220 / 41010.1 26.2
2017-Aug-10 15:09N 09°18' E 076°18'19 6.3 250 / 101009.0 25.9
2017-Aug-10 12:09N 09°00' E 076°24'17 5.6 260 / 41006.5 25.9
2017-Aug-10 09:09N 08°48' E 076°36'12 4.0 320 / 141006.4 25.7
2017-Aug-10 06:09N 08°48' E 076°24'18 5.9 340 / 81009.5 26.4
2017-Aug-10 03:09N 08°48' E 076°06'18 3.0 350 / 101009.2 26.3
2017-Aug-09 21:09N 08°48' E 075°48'18 5.9 320 / 121007.4 26.2
2017-Aug-09 18:09N 08°48' E 075°30'19 6.3 300 / 101009.9 26.9
2017-Aug-09 15:09N 08°42' E 075°12'13 3.8 320 / 141009.1 26.8
2017-Aug-09 11:39N 08°48' E 075°24'6 2.4 340 / 191007.1 25.6
2017-Aug-09 09:09N 08°48' E 075°30'13 4.4 300 / 101008.1 25.6
2017-Aug-09 06:09N 08°42' E 075°42'43 2.9 040 / 141009.7 25.3
2017-Aug-08 15:09N 08°30' E 076°24'8 1.3 270 / 121008.4 26.6
2017-Aug-08 08:39N 08°24' E 076°30'53 2.3 320 / 171006.3 26.7
2017-Aug-07 09:09N 08°00' E 077°18'12 4.0 290 / 191004.5 25.5
2017-Aug-07 06:09N 08°00' E 077°30'36 1.7 250 / 251005.5 25.0
2017-Aug-06 09:09N 07°24' E 077°30'12 4.0 280 / 191004.6 26.8
2017-Aug-06 06:09N 07°12' E 077°30'12 4.0 300 / 171007.1 26.6
2017-Aug-06 03:09N 07°00' E 077°30'6 2.0 300 / 141007.5 27.2
2017-Aug-06 00:09N 07°00' E 077°24'8 2.8 290 / 251006.2 26.4
2017-Aug-05 21:09N 07°06' E 077°30'13 4.5 310 / 231005.8 26.6
2017-Aug-05 18:09N 07°18' E 077°36'13 4.5 290 / 191007.2 26.7
2017-Aug-05 15:09N 07°30' E 077°42'22 7.2 300 / 271006.2 26.3
2017-Aug-05 12:09N 07°48' E 077°30'42 7.0 310 / 141004.9 26.9
2017-Aug-05 06:09N 08°18' E 077°00'   290 / 101008.0 26.3
Track history (hours):
 
Tides and Currents Weather Stations Pressure Air Temp Water Temp Dewpoint Dewpoint Depression Visibility Wind Speed Wind Dir Waves Ship Positions

Oceanographic research ship Sagar Sampada (India)

Detailed information on ship capabilities available from University of Delaware's Ocean Information Center.

Last reported at 2017-Aug-15 06:09 UTC. Time now 2017-Aug-19 15:00 UTC.
Position N 12°24' E 075°00'.

Type: Ship (hazmat cat A). MMSI: 419323000.

Wind from 260 at 10 knots

Barometer 1010.2 mb
Air temperature 28.1 ° C

Date/timePositionNaut miles runAvg speedWind from/ knotsBaromVisibWave heightAir tempDewpointWater temp
2017-Aug-15 06:09N 12°24' E 075°00'25 8.2 260 / 101010.2 28.1
2017-Aug-15 03:09N 12°00' E 075°06'0 0.0 340 / 41011.0 27.0
2017-Aug-15 00:09N 12°00' E 075°06'6 2.0 260 / 81009.4 26.4
2017-Aug-14 21:09N 11°54' E 075°06'6 2.0 360 / 81009.5 26.5
2017-Aug-14 18:09N 12°00' E 075°06'6 1.0 330 / 21011.3 27.2
2017-Aug-14 12:09N 12°00' E 075°00'42 1.6 310 / 121008.4 28.0
2017-Aug-13 09:09N 11°30' E 075°30'8 2.8 240 / 101008.9 27.0
2017-Aug-13 06:09N 11°24' E 075°36'18 5.9 340 / 41011.1 27.9
2017-Aug-13 03:09N 11°24' E 075°18'6 2.0 100 / 61011.4 25.3
2017-Aug-13 00:09N 11°18' E 075°18'0 0.0 300 / 21008.8 25.6
2017-Aug-12 21:09N 11°18' E 075°18'0 0.0 300 / 81008.7 25.7
2017-Aug-12 18:09N 11°18' E 075°18'36 4.0 300 / 81010.7 25.7
2017-Aug-12 09:09N 11°24' E 074°42'13 4.5 040 / 61008.9 28.3
2017-Aug-12 06:09N 11°12' E 074°48'13 4.5 060 / 21011.0 27.4
2017-Aug-12 03:09N 11°00' E 074°54'22 7.2 020 / 21011.1 26.2
2017-Aug-12 00:09N 10°42' E 075°06'19 6.3 030 / 81009.9 25.5
2017-Aug-11 21:09N 10°24' E 075°12'76 2.8 040 / 61010.1 26.4
2017-Aug-10 18:09N 09°36' E 076°12'19 6.3 220 / 41010.1 26.2
2017-Aug-10 15:09N 09°18' E 076°18'19 6.3 250 / 101009.0 25.9
2017-Aug-10 12:09N 09°00' E 076°24'17 5.6 260 / 41006.5 25.9
2017-Aug-10 09:09N 08°48' E 076°36'12 4.0 320 / 141006.4 25.7
2017-Aug-10 06:09N 08°48' E 076°24'18 5.9 340 / 81009.5 26.4
2017-Aug-10 03:09N 08°48' E 076°06'18 3.0 350 / 101009.2 26.3
2017-Aug-09 21:09N 08°48' E 075°48'18 5.9 320 / 121007.4 26.2
2017-Aug-09 18:09N 08°48' E 075°30'19 6.3 300 / 101009.9 26.9
2017-Aug-09 15:09N 08°42' E 075°12'13 3.8 320 / 141009.1 26.8
2017-Aug-09 11:39N 08°48' E 075°24'6 2.4 340 / 191007.1 25.6
2017-Aug-09 09:09N 08°48' E 075°30'13 4.4 300 / 101008.1 25.6
2017-Aug-09 06:09N 08°42' E 075°42'43 2.9 040 / 141009.7 25.3
2017-Aug-08 15:09N 08°30' E 076°24'8 1.3 270 / 121008.4 26.6
2017-Aug-08 08:39N 08°24' E 076°30'53 2.3 320 / 171006.3 26.7
2017-Aug-07 09:09N 08°00' E 077°18'12 4.0 290 / 191004.5 25.5
2017-Aug-07 06:09N 08°00' E 077°30'36 1.7 250 / 251005.5 25.0
2017-Aug-06 09:09N 07°24' E 077°30'12 4.0 280 / 191004.6 26.8
2017-Aug-06 06:09N 07°12' E 077°30'12 4.0 300 / 171007.1 26.6
2017-Aug-06 03:09N 07°00' E 077°30'6 2.0 300 / 141007.5 27.2
2017-Aug-06 00:09N 07°00' E 077°24'8 2.8 290 / 251006.2 26.4
2017-Aug-05 21:09N 07°06' E 077°30'13 4.5 310 / 231005.8 26.6
2017-Aug-05 18:09N 07°18' E 077°36'13 4.5 290 / 191007.2 26.7
2017-Aug-05 15:09N 07°30' E 077°42'22 7.2 300 / 271006.2 26.3
2017-Aug-05 12:09N 07°48' E 077°30'42 7.0 310 / 141004.9 26.9
2017-Aug-05 06:09N 08°18' E 077°00'   290 / 101008.0 26.3

Dump ship's entire track history